createdAt,value
2019-01-20T00:00:59.982Z,23.00
2019-01-20T00:03:25.955Z,22.90
2019-01-20T00:05:52.005Z,22.80
2019-01-20T00:08:18.044Z,22.80
2019-01-20T00:10:44.002Z,22.70
2019-01-20T00:13:10.032Z,22.70
2019-01-20T00:15:36.132Z,22.60
2019-01-20T00:18:02.186Z,22.60
2019-01-20T00:20:28.268Z,22.60
2019-01-20T00:22:54.321Z,22.50
2019-01-20T00:25:20.261Z,22.50
2019-01-20T00:27:46.335Z,22.50
2019-01-20T00:30:12.944Z,22.40
2019-01-20T00:32:38.908Z,22.40
2019-01-20T00:35:04.865Z,22.30
2019-01-20T00:37:30.822Z,22.30
2019-01-20T00:39:57.348Z,22.30
2019-01-20T00:42:23.407Z,22.20
2019-01-20T00:44:49.390Z,22.20
2019-01-20T00:47:15.454Z,22.20
2019-01-20T00:49:41.411Z,22.20
2019-01-20T00:52:07.396Z,22.10
2019-01-20T00:54:33.353Z,22.10
2019-01-20T00:56:59.388Z,22.10
2019-01-20T00:59:25.475Z,22.10
2019-01-20T01:01:51.536Z,22.00
2019-01-20T01:04:17.606Z,22.00
2019-01-20T01:06:43.673Z,22.00
2019-01-20T01:09:09.659Z,22.00
2019-01-20T01:11:35.625Z,22.00
2019-01-20T01:14:01.614Z,21.90
2019-01-20T01:16:27.631Z,21.90
2019-01-20T01:18:53.690Z,21.90
2019-01-20T01:21:19.629Z,21.90
2019-01-20T01:23:45.638Z,21.80
2019-01-20T01:26:11.567Z,21.80
2019-01-20T01:28:37.653Z,21.80
2019-01-20T01:31:03.603Z,21.70
2019-01-20T01:33:29.540Z,21.70
2019-01-20T01:35:55.504Z,21.70
2019-01-20T01:38:21.476Z,21.70
2019-01-20T01:40:47.435Z,21.70
2019-01-20T01:43:13.395Z,21.70
2019-01-20T01:45:39.360Z,21.60
2019-01-20T01:48:05.332Z,21.60
2019-01-20T01:50:31.303Z,21.60
2019-01-20T01:52:57.326Z,21.60
2019-01-20T01:55:23.405Z,21.60
2019-01-20T01:57:49.351Z,21.50
2019-01-20T02:00:15.836Z,21.50
2019-01-20T02:02:41.794Z,21.50
2019-01-20T02:05:07.856Z,21.50
2019-01-20T02:07:33.820Z,21.50
2019-01-20T02:09:59.938Z,21.40
2019-01-20T02:12:26.364Z,21.40
2019-01-20T02:14:52.330Z,21.40
2019-01-20T02:17:18.378Z,21.40
2019-01-20T02:19:44.324Z,21.40
2019-01-20T02:22:10.282Z,21.30
2019-01-20T02:24:36.211Z,21.30
2019-01-20T02:27:02.158Z,21.30
2019-01-20T02:29:28.104Z,21.30
2019-01-20T02:31:54.067Z,21.30
2019-01-20T02:34:20.095Z,21.50
2019-01-20T02:36:46.059Z,21.20
2019-01-20T02:39:11.997Z,21.20
2019-01-20T02:41:37.971Z,21.20
2019-01-20T02:44:03.937Z,21.20
2019-01-20T02:46:30.090Z,21.20
2019-01-20T02:48:56.113Z,21.10
2019-01-20T02:51:22.109Z,21.10
2019-01-20T02:53:48.076Z,21.10
2019-01-20T02:56:14.169Z,21.10
2019-01-20T02:58:40.203Z,21.10
2019-01-20T03:01:06.155Z,21.10
2019-01-20T03:03:32.121Z,21.10
2019-01-20T03:05:58.080Z,21.10
2019-01-20T03:08:24.054Z,21.10
2019-01-20T03:10:50.008Z,21.00
2019-01-20T03:13:15.984Z,21.00
2019-01-20T03:15:42.020Z,21.00
2019-01-20T03:18:08.081Z,21.00
2019-01-20T03:20:34.060Z,21.00
2019-01-20T03:23:00.016Z,21.00
2019-01-20T03:25:26.118Z,20.90
2019-01-20T03:27:52.148Z,20.90
2019-01-20T03:30:18.465Z,20.90
2019-01-20T03:32:44.562Z,20.90
2019-01-20T03:35:10.561Z,20.90
2019-01-20T03:37:36.537Z,20.90
2019-01-20T03:40:02.470Z,20.90
2019-01-20T03:42:28.523Z,20.90
2019-01-20T03:44:54.587Z,20.80
2019-01-20T03:47:20.551Z,20.80
2019-01-20T03:49:46.519Z,20.80
2019-01-20T03:52:12.470Z,20.80
2019-01-20T03:54:38.455Z,20.80
2019-01-20T03:57:04.530Z,20.80
2019-01-20T03:59:30.601Z,20.70
2019-01-20T04:01:56.627Z,20.80
2019-01-20T04:04:22.585Z,20.70
2019-01-20T04:06:48.521Z,20.70
2019-01-20T04:09:14.520Z,20.70
2019-01-20T04:11:40.470Z,20.70
2019-01-20T04:14:06.445Z,20.70
2019-01-20T04:16:32.406Z,20.60
2019-01-20T04:18:58.359Z,20.70
2019-01-20T04:21:24.284Z,20.60
2019-01-20T04:23:50.285Z,20.60
2019-01-20T04:26:16.307Z,20.60
2019-01-20T04:28:42.275Z,20.60
2019-01-20T04:31:08.228Z,20.60
2019-01-20T04:33:34.161Z,20.60
2019-01-20T04:36:00.120Z,20.50
2019-01-20T04:38:26.095Z,20.50
2019-01-20T04:40:52.125Z,20.50
2019-01-20T04:43:18.110Z,20.50
2019-01-20T04:45:44.186Z,20.50
2019-01-20T04:48:10.181Z,20.50
2019-01-20T04:50:36.238Z,20.50
2019-01-20T04:53:02.181Z,20.50
2019-01-20T04:55:29.505Z,20.50
2019-01-20T04:57:55.954Z,20.50
2019-01-20T05:00:21.893Z,20.50
2019-01-20T05:02:47.866Z,20.40
2019-01-20T05:05:13.908Z,20.40
2019-01-20T05:07:41.444Z,20.40
2019-01-20T05:10:07.440Z,20.40
2019-01-20T05:12:37.898Z,20.40
2019-01-20T05:15:01.306Z,20.40
2019-01-20T05:17:27.556Z,20.40
2019-01-20T05:19:53.534Z,20.40
2019-01-20T05:22:19.512Z,19.40
2019-01-20T05:24:45.477Z,20.40
2019-01-20T05:27:11.596Z,20.40
2019-01-20T05:29:37.556Z,20.30
2019-01-20T05:32:03.511Z,20.30
2019-01-20T05:34:29.550Z,20.30
2019-01-20T05:36:55.539Z,20.30
2019-01-20T05:39:21.512Z,20.30
2019-01-20T05:41:47.442Z,20.30
2019-01-20T05:44:13.399Z,20.30
2019-01-20T05:46:39.456Z,20.20
2019-01-20T05:49:05.507Z,20.20
2019-01-20T05:51:31.566Z,20.20
2019-01-20T05:53:57.618Z,20.30
2019-01-20T05:56:23.614Z,20.20
2019-01-20T05:58:49.582Z,20.20
2019-01-20T06:01:15.559Z,20.20
2019-01-20T06:03:41.666Z,20.20
2019-01-20T06:06:07.685Z,20.20
2019-01-20T06:08:33.675Z,20.10
2019-01-20T06:10:59.735Z,20.10
2019-01-20T06:13:25.669Z,20.20
2019-01-20T06:15:51.615Z,20.20
2019-01-20T06:18:17.557Z,20.20
2019-01-20T06:20:43.649Z,20.10
2019-01-20T06:23:09.605Z,20.10
2019-01-20T06:25:35.572Z,20.20
2019-01-20T06:28:01.542Z,20.20
2019-01-20T06:30:28.998Z,20.20
2019-01-20T06:32:54.975Z,20.20
2019-01-20T06:35:20.916Z,20.30
2019-01-20T06:37:46.882Z,20.40
2019-01-20T06:40:13.524Z,20.40
2019-01-20T06:42:39.603Z,20.40
2019-01-20T06:45:05.550Z,20.50
2019-01-20T06:47:31.504Z,20.50
2019-01-20T06:49:57.534Z,20.50
2019-01-20T06:52:23.517Z,20.50
2019-01-20T06:54:49.565Z,20.60
2019-01-20T06:57:15.544Z,20.60
2019-01-20T06:59:41.515Z,20.70
2019-01-20T07:02:07.561Z,20.70
2019-01-20T07:04:33.525Z,20.80
2019-01-20T07:06:59.589Z,20.90
2019-01-20T07:09:25.558Z,21.00
2019-01-20T07:11:51.633Z,21.00
2019-01-20T07:14:17.642Z,21.10
2019-01-20T07:16:43.676Z,21.20
2019-01-20T07:19:09.667Z,21.20
2019-01-20T07:21:35.626Z,21.30
2019-01-20T07:24:01.681Z,21.30
2019-01-20T07:26:27.675Z,21.40
2019-01-20T07:28:53.740Z,21.40
2019-01-20T07:31:19.685Z,21.50
2019-01-20T07:33:45.677Z,21.50
2019-01-20T07:36:11.630Z,21.50
2019-01-20T07:38:37.591Z,21.60
2019-01-20T07:41:03.553Z,21.60
2019-01-20T07:43:29.503Z,21.60
2019-01-20T07:45:55.444Z,21.60
2019-01-20T07:48:21.405Z,21.70
2019-01-20T07:50:47.796Z,21.70
2019-01-20T07:53:13.985Z,21.80
2019-01-20T07:55:39.923Z,21.80
2019-01-20T07:58:05.873Z,21.80
2019-01-20T08:00:31.823Z,21.90
2019-01-20T08:02:57.792Z,21.90
2019-01-20T08:05:23.758Z,22.00
2019-01-20T08:07:49.699Z,22.00
2019-01-20T08:10:16.342Z,22.00
2019-01-20T08:12:42.284Z,22.20
2019-01-20T08:15:08.231Z,22.00
2019-01-20T08:17:34.179Z,22.00
2019-01-20T08:20:01.153Z,21.90
2019-01-20T08:22:27.095Z,21.90
2019-01-20T08:24:53.043Z,21.90
2019-01-20T08:27:19.118Z,21.90
2019-01-20T08:29:45.048Z,21.90
2019-01-20T08:32:11.008Z,21.90
2019-01-20T08:34:37.692Z,21.90
2019-01-20T08:37:04.405Z,22.00
2019-01-20T08:39:30.537Z,22.10
2019-01-20T08:41:56.506Z,22.20
2019-01-20T08:44:22.468Z,22.20
2019-01-20T08:46:48.426Z,22.30
2019-01-20T08:49:14.376Z,22.30
2019-01-20T08:51:40.332Z,22.40
2019-01-20T08:54:06.302Z,22.40
2019-01-20T08:56:32.350Z,22.40
2019-01-20T08:58:58.291Z,22.50
2019-01-20T09:01:24.260Z,22.50
2019-01-20T09:03:50.212Z,22.50
2019-01-20T09:06:20.263Z,22.60
2019-01-20T09:08:46.212Z,22.60
2019-01-20T09:11:12.159Z,22.60
2019-01-20T09:13:39.806Z,22.60
2019-01-20T09:16:06.170Z,22.50
2019-01-20T09:18:32.132Z,22.40
2019-01-20T09:20:58.073Z,22.40
2019-01-20T09:23:24.020Z,22.40
2019-01-20T09:25:49.989Z,22.40
2019-01-20T09:28:15.908Z,22.40
2019-01-20T09:30:41.869Z,22.40
2019-01-20T09:33:07.878Z,22.50
2019-01-20T09:35:33.828Z,22.50
2019-01-20T09:37:59.795Z,22.50
2019-01-20T09:40:25.875Z,22.60
2019-01-20T09:42:51.810Z,22.60
2019-01-20T09:45:19.693Z,22.70
2019-01-20T09:47:45.660Z,22.70
2019-01-20T09:50:11.616Z,22.70
2019-01-20T09:52:37.598Z,22.70
2019-01-20T09:55:03.548Z,22.80
2019-01-20T09:57:29.518Z,22.80
2019-01-20T09:59:55.491Z,22.80
2019-01-20T10:02:21.432Z,22.90
2019-01-20T10:04:47.423Z,22.90
2019-01-20T10:07:13.400Z,22.90
2019-01-20T10:09:39.342Z,23.00
2019-01-20T10:12:05.298Z,23.00
2019-01-20T10:14:31.309Z,23.00
2019-01-20T10:16:57.486Z,23.10
2019-01-20T10:19:23.445Z,23.10
2019-01-20T10:21:49.512Z,23.20
2019-01-20T10:24:15.496Z,23.20
2019-01-20T10:26:41.535Z,23.30
2019-01-20T10:29:07.515Z,23.30
2019-01-20T10:31:33.557Z,23.30
2019-01-20T10:33:59.522Z,23.30
2019-01-20T10:36:25.616Z,23.40
2019-01-20T10:38:51.646Z,23.40
2019-01-20T10:41:17.690Z,23.40
2019-01-20T10:43:43.653Z,23.40
2019-01-20T10:46:09.639Z,23.40
2019-01-20T10:48:35.705Z,23.50
2019-01-20T10:51:01.684Z,23.40
2019-01-20T10:53:27.614Z,23.40
2019-01-20T10:55:53.585Z,23.40
2019-01-20T10:58:19.551Z,23.50
2019-01-20T11:00:45.497Z,23.50
2019-01-20T11:03:11.473Z,23.40
2019-01-20T11:05:37.495Z,23.40
2019-01-20T11:08:03.455Z,23.50
2019-01-20T11:10:29.435Z,23.50
2019-01-20T11:12:55.409Z,23.50
2019-01-20T11:15:21.337Z,23.50
2019-01-20T11:17:47.401Z,23.50
2019-01-20T11:20:13.393Z,23.50
2019-01-20T11:22:39.457Z,23.50
2019-01-20T11:25:05.529Z,23.60
2019-01-20T11:27:31.463Z,23.50
2019-01-20T11:29:57.418Z,23.50
2019-01-20T11:32:23.389Z,23.60
2019-01-20T11:34:49.331Z,23.60
2019-01-20T11:37:15.312Z,23.60
2019-01-20T11:39:41.273Z,23.60
2019-01-20T11:42:07.297Z,23.60
2019-01-20T11:44:34.260Z,23.60
2019-01-20T11:47:00.317Z,23.70
2019-01-20T11:49:26.288Z,23.70
2019-01-20T11:51:52.242Z,23.70
2019-01-20T11:54:18.942Z,23.70
2019-01-20T11:56:44.902Z,23.70
2019-01-20T11:59:10.866Z,23.80
2019-01-20T12:01:36.803Z,23.80
2019-01-20T12:04:02.813Z,23.80
2019-01-20T12:06:28.863Z,23.80
2019-01-20T12:08:54.908Z,23.80
2019-01-20T12:11:20.843Z,23.90
2019-01-20T12:13:47.002Z,23.80
2019-01-20T12:16:12.964Z,23.80
2019-01-20T12:18:39.893Z,23.90
2019-01-20T12:21:05.860Z,23.90
2019-01-20T12:23:31.816Z,23.90
2019-01-20T12:25:57.794Z,24.00
2019-01-20T12:28:23.744Z,24.00
2019-01-20T12:30:49.690Z,23.90
2019-01-20T12:33:15.630Z,23.90
2019-01-20T12:35:41.582Z,24.00
2019-01-20T12:38:07.553Z,24.00
2019-01-20T12:40:33.658Z,24.00
2019-01-20T12:42:59.613Z,24.00
2019-01-20T12:45:25.684Z,24.00
2019-01-20T12:47:51.656Z,24.00
2019-01-20T12:50:17.614Z,24.00
2019-01-20T12:52:43.588Z,24.00
2019-01-20T12:55:09.543Z,24.00
2019-01-20T12:57:35.482Z,24.00
2019-01-20T13:00:01.460Z,24.00
2019-01-20T13:02:27.565Z,24.00
2019-01-20T13:04:56.437Z,24.00
2019-01-20T13:07:21.685Z,24.00
2019-01-20T13:09:47.722Z,24.00
2019-01-20T13:12:13.687Z,24.00
2019-01-20T13:14:39.617Z,24.00
2019-01-20T13:17:05.597Z,24.10
2019-01-20T13:19:31.549Z,24.00
2019-01-20T13:21:57.486Z,24.10
2019-01-20T13:24:23.428Z,24.00
2019-01-20T13:26:49.424Z,24.10
2019-01-20T13:29:15.405Z,24.00
2019-01-20T13:31:41.376Z,24.00
2019-01-20T13:34:07.408Z,24.00
2019-01-20T13:36:33.377Z,24.00
2019-01-20T13:38:59.336Z,24.00
2019-01-20T13:41:25.285Z,24.00
2019-01-20T13:43:51.245Z,24.00
2019-01-20T13:46:17.208Z,24.00
2019-01-20T13:48:43.168Z,24.00
2019-01-20T13:51:09.122Z,24.00
2019-01-20T13:53:35.102Z,24.00
2019-01-20T13:56:01.374Z,24.00
2019-01-20T13:58:27.503Z,24.00
2019-01-20T14:00:53.484Z,24.00
2019-01-20T14:03:19.438Z,24.00
2019-01-20T14:05:45.506Z,24.00
2019-01-20T14:08:11.558Z,24.00
2019-01-20T14:10:37.534Z,24.00
2019-01-20T14:13:03.474Z,24.00
2019-01-20T14:15:29.467Z,24.00
2019-01-20T14:17:55.496Z,24.00
2019-01-20T14:20:21.474Z,24.00
2019-01-20T14:22:47.432Z,24.00
2019-01-20T14:25:13.392Z,24.00
2019-01-20T14:27:39.344Z,24.00
2019-01-20T14:30:05.291Z,24.00
2019-01-20T14:32:31.265Z,24.00
2019-01-20T14:34:57.202Z,24.00
2019-01-20T14:37:23.173Z,24.00
2019-01-20T14:39:49.138Z,24.00
2019-01-20T14:42:15.169Z,24.00
2019-01-20T14:44:41.116Z,24.00
2019-01-20T14:47:26.920Z,24.00
2019-01-20T14:49:52.882Z,23.70
2019-01-20T14:52:18.828Z,24.00
2019-01-20T14:54:44.806Z,24.10
2019-01-20T14:57:10.962Z,24.10
2019-01-20T14:59:36.940Z,24.10
2019-01-20T15:02:02.902Z,24.10
2019-01-20T15:04:28.843Z,24.10
2019-01-20T15:06:54.800Z,24.10
2019-01-20T15:09:20.734Z,24.10
2019-01-20T15:11:46.723Z,24.10
2019-01-20T15:14:12.757Z,24.10
2019-01-20T15:16:38.703Z,24.10
2019-01-20T15:19:04.677Z,24.10
2019-01-20T15:21:30.617Z,24.10
2019-01-20T15:23:56.565Z,24.10
2019-01-20T15:26:22.633Z,24.10
2019-01-20T15:28:48.661Z,24.10
2019-01-20T15:31:14.609Z,24.10
2019-01-20T15:33:40.547Z,24.10
2019-01-20T15:36:07.091Z,24.10
2019-01-20T15:38:33.069Z,24.10
2019-01-20T15:40:59.118Z,24.10
2019-01-20T15:43:25.151Z,24.10
2019-01-20T15:45:51.121Z,24.10
2019-01-20T15:48:17.070Z,24.10
2019-01-20T15:50:43.033Z,24.10
2019-01-20T15:53:09.002Z,24.10
2019-01-20T15:55:34.951Z,24.10
2019-01-20T15:58:00.912Z,24.10
2019-01-20T16:00:27.016Z,24.10
2019-01-20T16:02:52.985Z,24.10
2019-01-20T16:05:19.061Z,24.10
2019-01-20T16:07:45.027Z,24.20
2019-01-20T16:10:11.034Z,24.20
2019-01-20T16:12:37.046Z,24.20
2019-01-20T16:15:03.106Z,24.30
2019-01-20T16:17:29.203Z,24.40
2019-01-20T16:19:55.249Z,24.50
2019-01-20T16:22:21.240Z,24.70
2019-01-20T16:24:47.293Z,24.80
2019-01-20T16:27:13.633Z,24.80
2019-01-20T16:29:39.577Z,24.70
2019-01-20T16:32:05.523Z,24.60
2019-01-20T16:34:31.491Z,24.60
2019-01-20T16:36:57.589Z,24.60
2019-01-20T16:39:23.587Z,24.50
2019-01-20T16:41:49.543Z,24.50
2019-01-20T16:44:15.482Z,24.50
2019-01-20T16:46:41.449Z,24.50
2019-01-20T16:49:07.410Z,24.40
2019-01-20T16:51:33.367Z,24.50
2019-01-20T16:54:00.775Z,24.50
2019-01-20T16:56:26.874Z,24.40
2019-01-20T16:58:52.820Z,24.40
2019-01-20T17:01:18.783Z,24.40
2019-01-20T17:03:44.746Z,24.40
2019-01-20T17:06:10.694Z,24.40
2019-01-20T17:08:36.660Z,24.40
2019-01-20T17:11:02.730Z,24.40
2019-01-20T17:13:28.774Z,24.40
2019-01-20T17:15:54.809Z,24.40
2019-01-20T17:18:20.791Z,24.40
2019-01-20T17:20:46.726Z,24.40
2019-01-20T17:23:12.723Z,24.40
2019-01-20T17:25:38.666Z,24.40
2019-01-20T17:28:04.656Z,24.40
2019-01-20T17:30:30.719Z,24.40
2019-01-20T17:32:56.776Z,24.40
2019-01-20T17:35:22.730Z,24.30
2019-01-20T17:37:48.685Z,24.40
2019-01-20T17:40:14.660Z,24.40
2019-01-20T17:42:40.622Z,24.40
2019-01-20T17:45:06.765Z,24.40
2019-01-20T17:47:32.822Z,24.30
2019-01-20T17:49:58.791Z,24.40
2019-01-20T17:52:24.754Z,24.40
2019-01-20T17:54:50.735Z,24.40
2019-01-20T17:57:16.694Z,24.40
2019-01-20T17:59:42.653Z,24.40
2019-01-20T18:02:08.708Z,24.40
2019-01-20T18:04:34.760Z,24.40
2019-01-20T18:07:00.699Z,24.40
2019-01-20T18:09:26.645Z,24.40
2019-01-20T18:11:52.585Z,24.40
2019-01-20T18:14:18.525Z,24.40
2019-01-20T18:16:44.471Z,24.40
2019-01-20T18:19:10.541Z,24.40
2019-01-20T18:21:36.476Z,24.40
2019-01-20T18:24:02.432Z,24.40
2019-01-20T18:26:28.482Z,24.40
2019-01-20T18:28:54.466Z,24.40
2019-01-20T18:31:20.518Z,24.40
2019-01-20T18:33:46.450Z,24.30
2019-01-20T18:36:12.430Z,24.30
2019-01-20T18:38:38.387Z,24.30
2019-01-20T18:41:04.340Z,24.30
2019-01-20T18:43:30.397Z,24.30
2019-01-20T18:46:01.552Z,24.30
2019-01-20T18:48:24.230Z,24.40
2019-01-20T18:50:50.198Z,24.40
2019-01-20T18:53:16.238Z,24.30
2019-01-20T18:55:42.211Z,24.40
2019-01-20T18:58:08.164Z,24.40
2019-01-20T19:00:34.120Z,24.40
2019-01-20T19:03:00.168Z,24.40
2019-01-20T19:05:26.301Z,24.40
2019-01-20T19:07:55.453Z,24.40
2019-01-20T19:10:20.104Z,24.40
2019-01-20T19:12:46.049Z,24.40
2019-01-20T19:15:12.109Z,24.30
2019-01-20T19:17:38.069Z,24.30
2019-01-20T19:20:04.052Z,24.20
2019-01-20T19:22:30.024Z,24.10
2019-01-20T19:24:56.460Z,24.00
2019-01-20T19:27:22.515Z,23.90
2019-01-20T19:29:48.450Z,23.80
2019-01-20T19:32:14.398Z,23.80
2019-01-20T19:34:40.333Z,23.80
2019-01-20T19:37:06.297Z,23.70
2019-01-20T19:39:32.227Z,23.80
2019-01-20T19:41:58.184Z,23.80
2019-01-20T19:44:24.140Z,23.80
2019-01-20T19:46:50.103Z,23.90
2019-01-20T19:49:16.056Z,24.00
2019-01-20T19:51:42.029Z,24.00
2019-01-20T19:54:07.971Z,24.10
2019-01-20T19:56:33.932Z,24.10
2019-01-20T19:58:59.885Z,24.10
2019-01-20T20:01:30.763Z,24.10
2019-01-20T20:03:53.727Z,24.20
2019-01-20T20:06:19.680Z,24.20
2019-01-20T20:08:45.730Z,24.10
2019-01-20T20:11:11.693Z,24.10
2019-01-20T20:13:37.662Z,24.30
2019-01-20T20:16:03.557Z,24.30
2019-01-20T20:18:29.507Z,24.30
2019-01-20T20:20:55.447Z,24.30
2019-01-20T20:23:21.388Z,24.30
2019-01-20T20:25:47.373Z,24.40
2019-01-20T20:28:13.323Z,24.30
2019-01-20T20:30:39.282Z,24.40
2019-01-20T20:33:05.257Z,24.40
2019-01-20T20:35:31.323Z,24.40
2019-01-20T20:37:57.297Z,24.40
2019-01-20T20:40:23.259Z,24.40
2019-01-20T20:42:49.277Z,24.40
2019-01-20T20:45:15.313Z,23.90
2019-01-20T20:47:41.274Z,24.40
2019-01-20T20:50:07.233Z,24.40
2019-01-20T20:52:33.189Z,24.40
2019-01-20T20:54:59.131Z,24.40
2019-01-20T20:57:25.114Z,24.50
2019-01-20T20:59:51.069Z,24.40
2019-01-20T21:02:17.053Z,24.50
2019-01-20T21:04:43.857Z,24.40
2019-01-20T21:07:09.932Z,24.50
2019-01-20T21:09:36.004Z,24.40
2019-01-20T21:12:02.081Z,24.40
2019-01-20T21:14:28.132Z,24.40
2019-01-20T21:16:54.089Z,24.30
2019-01-20T21:19:20.131Z,24.20
2019-01-20T21:21:46.113Z,24.20
2019-01-20T21:24:12.163Z,24.10
2019-01-20T21:26:38.139Z,24.10
2019-01-20T21:29:04.165Z,24.10
2019-01-20T21:31:30.115Z,24.10
2019-01-20T21:33:56.146Z,24.10
2019-01-20T21:36:22.106Z,24.10
2019-01-20T21:38:48.156Z,24.10
2019-01-20T21:41:14.099Z,24.10
2019-01-20T21:43:40.034Z,24.10
2019-01-20T21:46:06.027Z,24.10
2019-01-20T21:48:32.083Z,24.10
2019-01-20T21:50:58.053Z,24.10
2019-01-20T21:53:24.003Z,24.00
2019-01-20T21:55:49.959Z,24.10
2019-01-20T21:58:15.896Z,24.10
2019-01-20T22:00:41.880Z,24.10
2019-01-20T22:03:07.828Z,24.10
2019-01-20T22:05:33.783Z,24.10
2019-01-20T22:07:59.747Z,24.10
2019-01-20T22:10:25.703Z,24.10
2019-01-20T22:12:51.675Z,24.10
2019-01-20T22:15:17.658Z,24.10
2019-01-20T22:17:43.610Z,24.10
2019-01-20T22:20:09.569Z,24.10
2019-01-20T22:22:35.629Z,24.10
2019-01-20T22:25:01.604Z,24.10
2019-01-20T22:27:27.564Z,24.10
2019-01-20T22:29:53.532Z,24.10
2019-01-20T22:32:19.482Z,24.10
2019-01-20T22:34:45.449Z,24.10
2019-01-20T22:37:11.406Z,24.10
2019-01-20T22:39:37.365Z,24.10
2019-01-20T22:42:03.330Z,24.10
2019-01-20T22:44:29.294Z,24.10
2019-01-20T22:47:00.114Z,24.10
2019-01-20T22:49:23.110Z,24.10
2019-01-20T22:51:49.094Z,24.10
2019-01-20T22:54:15.034Z,24.00
2019-01-20T22:56:40.989Z,24.10
2019-01-20T22:59:06.941Z,24.10
2019-01-20T23:01:32.901Z,24.00
2019-01-20T23:03:58.867Z,24.10
2019-01-20T23:06:24.923Z,24.00
2019-01-20T23:08:50.964Z,24.00
2019-01-20T23:11:16.977Z,24.00
2019-01-20T23:13:43.009Z,24.00
2019-01-20T23:16:08.981Z,23.90
2019-01-20T23:18:35.508Z,23.80
2019-01-20T23:21:01.454Z,23.80
2019-01-20T23:23:27.388Z,23.70
2019-01-20T23:25:53.370Z,23.70
2019-01-20T23:28:19.339Z,23.60
2019-01-20T23:30:45.297Z,23.60
2019-01-20T23:33:11.252Z,23.50
2019-01-20T23:35:37.203Z,23.50
2019-01-20T23:38:03.141Z,23.50
2019-01-20T23:40:29.111Z,23.40
2019-01-20T23:42:55.053Z,23.40
2019-01-20T23:45:21.007Z,23.30
2019-01-20T23:47:46.986Z,23.30
2019-01-20T23:50:13.028Z,23.30
2019-01-20T23:52:39.045Z,23.20
2019-01-20T23:55:05.242Z,23.20
2019-01-20T23:57:31.300Z,23.20
2019-01-20T23:59:57.265Z,23.10
